ADDS METAR Data INFO
IDs: Format: Raw Decoded Include TAF

Data at: 0211 UTC 14 Dec 2017

KZPH 140155Z AUTO 00000KT 10SM CLR 06/01 A3009 RMK AO2 T00570011
KZPH 140135Z AUTO 00000KT 10SM CLR 06/01 A3009 RMK AO2 T00600006
KZPH 140115Z AUTO 00000KT 10SM CLR 06/00 A3010 RMK AO2 T00570001
KZPH 140055Z AUTO 26003KT 10SM CLR 08/01 A3010 RMK AO2 T00750005
KZPH 140035Z AUTO 28003KT 10SM CLR 08/00 A3010 RMK AO2 T00761004
KZPH 140015Z AUTO 30004KT 10SM CLR 09/00 A3010 RMK AO2 T00881005
KZPH 132355Z AUTO 29004KT 10SM CLR 10/M03 A3009 RMK AO2 T00951026 10178 20094
KZPH 132335Z AUTO 28005KT 10SM CLR 10/M02 A3009 RMK AO2 T00961024
KZPH 132315Z AUTO 27004KT 10SM CLR 12/M04 A3008 RMK AO2 T01161042
KZPH 132255Z AUTO 30005KT 10SM CLR 13/M07 A3008 RMK AO2 T01271067
KZPH 132235Z AUTO 30005KT 10SM CLR 14/M07 A3008 RMK AO2 T01441072
KZPH 132215Z AUTO 27007KT 10SM CLR 15/M08 A3008 RMK AO2 T01531081
KZPH 132155Z AUTO 27008KT 10SM CLR 16/M07 A3007 RMK AO2 T01611073
KZPH 132135Z AUTO 30006KT 10SM CLR 17/M06 A3006 RMK AO2 T01661061
KZPH 132115Z AUTO 27009KT 10SM CLR 17/M07 A3006 RMK AO2 T01701071
KZPH 132055Z AUTO 28007KT 10SM CLR 17/M08 A3006 RMK AO2 T01721076
KZPH 132035Z AUTO 29008KT 10SM CLR 18/M07 A3007 RMK AO2 T01771071
KZPH 132015Z AUTO 31007KT 10SM CLR 18/M05 A3007 RMK AO2 T01771052
KZPH 131955Z AUTO 30006KT 10SM CLR 18/M04 A3007 RMK AO2 T01761041
KZPH 131935Z AUTO 29007KT 10SM CLR 18/M04 A3007 RMK AO2 T01751040
KZPH 131915Z AUTO 31005KT 10SM CLR 17/M04 A3007 RMK AO2 T01741043
KZPH 131855Z AUTO 29008KT 10SM CLR 17/M04 A3008 RMK AO2 T01711041
KZPH 131835Z AUTO 29005KT 10SM CLR 17/M03 A3009 RMK AO2 T01671034
KZPH 131815Z AUTO 31004KT 10SM CLR 17/M04 A3010 RMK AO2 T01651040
KZPH 131755Z AUTO 32008KT 280V340 10SM CLR 16/M03 A3011 RMK AO2 T01621030 10162 20020
KZPH 131735Z AUTO 00000KT 10SM CLR 16/M02 A3013 RMK AO2 T01561019
KZPH 131635Z AUTO 33007KT 290V010 10SM CLR 14/M01 A3016 RMK AO2 T01361011
KZPH 131615Z AUTO 33009KT 10SM CLR 13/M01 A3016 RMK AO2 T01301010
KZPH 131555Z AUTO 31006KT 10SM CLR 12/M01 A3017 RMK AO2 T01231007
KZPH 131535Z AUTO 34004KT 10SM CLR 12/M01 A3017 RMK AO2 T01181007
KZPH 131515Z AUTO 35004KT 10SM CLR 11/00 A3017 RMK AO2 T01101003
KZPH 131455Z AUTO 01008KT 10SM CLR 10/00 A3016 RMK AO2 T01030000
KZPH 131435Z AUTO 36007KT 10SM CLR 09/01 A3016 RMK AO2 T00940007
KZPH 131415Z AUTO 34005KT 10SM CLR 09/02 A3016 RMK AO2 T00890016
KZPH 131355Z AUTO 34003KT 10SM CLR 08/02 A3015 RMK AO2 T00770018
KZPH 131335Z AUTO 00000KT 10SM CLR 05/03 A3014 RMK AO2 T00520028
KZPH 131315Z AUTO 00000KT 10SM CLR 03/01 A3013 RMK AO2 T00290013
KZPH 131255Z AUTO 00000KT 10SM CLR 02/01 A3013 RMK AO2 T00230008
KZPH 131235Z AUTO 00000KT 10SM CLR 03/01 A3012 RMK AO2 T00270011
KZPH 131215Z AUTO 00000KT 10SM CLR 04/02 A3011 RMK AO2 T00370020
KZPH 131155Z AUTO 00000KT 10SM CLR 03/01 A3011 RMK AO2 T00340008 10103 20031
KZPH 131135Z AUTO 00000KT 10SM CLR 04/00 A3010 RMK AO2 T00370002
KZPH 131115Z AUTO 00000KT 10SM CLR 06/01 A3009 RMK AO2 T00600014
KZPH 131055Z AUTO 35003KT 10SM CLR 06/01 A3008 RMK AO2 T00620010
KZPH 131035Z AUTO 35004KT 10SM CLR 07/01 A3007 RMK AO2 T00680011
KZPH 131015Z AUTO 33006KT 10SM CLR 08/01 A3007 RMK AO2 T00760013
KZPH 130955Z AUTO 34007KT 10SM CLR 08/02 A3006 RMK AO2 T00800015
KZPH 130935Z AUTO 34006KT 10SM CLR 08/02 A3006 RMK AO2 T00810016
KZPH 130915Z AUTO 00000KT 10SM CLR 09/02 A3006 RMK AO2 T00900016
KZPH 130855Z AUTO 00000KT 10SM CLR 10/02 A3005 RMK AO2 T00950016
KZPH 130835Z AUTO 34011KT 10SM CLR 10/02 A3005 RMK AO2 T00970017
KZPH 130815Z AUTO 34009KT 10SM CLR 10/02 A3005 RMK AO2 T00970018
KZPH 130755Z AUTO 34009KT 10SM CLR 10/02 A3004 RMK AO2 T00970019
KZPH 130735Z AUTO 34008KT 10SM CLR 10/02 A3004 RMK AO2 T00970020
KZPH 130715Z AUTO 34009KT 10SM CLR 10/02 A3004 RMK AO2 T00960023
KZPH 130655Z AUTO 00000KT 10SM CLR 10/02 A3004 RMK AO2 T00990024
KZPH 130635Z AUTO 34008KT 10SM CLR 10/03 A3003 RMK AO2 T01010026
KZPH 130555Z AUTO 00000KT 10SM CLR 10/04 A3004 RMK AO2 T01030035 10168 20103 402320022
KZPH 130535Z AUTO 33008KT 10SM CLR 11/04 A3005 RMK AO2 T01060040
KZPH 130515Z AUTO 33007KT 10SM CLR 11/05 A3005 RMK AO2 T01050045
KZPH 130455Z AUTO 32006KT 10SM CLR 10/05 A3004 RMK AO2 T01040051
KZPH 130435Z AUTO 00000KT 10SM CLR 11/06 A3003 RMK AO2 T01050055
KZPH 130415Z AUTO 33005KT 10SM CLR 11/06 A3003 RMK AO2 T01130060
KZPH 130355Z AUTO 33006KT 10SM CLR 12/07 A3003 RMK AO2 T01150065
KZPH 130335Z AUTO 33004KT 10SM CLR 12/07 A3002 RMK AO2 T01170073
KZPH 130315Z AUTO 00000KT 10SM CLR 12/08 A3001 RMK AO2 T01150079
KZPH 130255Z AUTO 00000KT 10SM CLR 12/08 A3001 RMK AO2 T01200080
KZPH 130235Z AUTO 00000KT 10SM CLR 12/08 A3002 RMK AO2 T01210080
KZPH 130215Z AUTO 00000KT 10SM CLR 12/08 A3001 RMK AO2 T01220077
KZPH 130155Z AUTO 00000KT 10SM CLR 13/08 A3000 RMK AO2 T01300077
KZPH 130135Z AUTO 00000KT 10SM CLR 14/08 A2999 RMK AO2 T01360080
KZPH 130115Z AUTO 00000KT 10SM CLR 14/09 A2998 RMK AO2 T01430085
KZPH 130055Z AUTO 30008KT 10SM CLR 15/09 A2998 RMK AO2 T01500090
KZPH 130035Z AUTO 29008KT 10SM CLR 16/10 A2997 RMK AO2 T01550095
KZPH 130015Z AUTO 30009G16KT 10SM CLR 16/11 A2996 RMK AO2 T01640106
KZPH 122355Z AUTO 29010KT 10SM CLR 17/13 A2995 RMK AO2 T01690134 10232 20169
KZPH 122335Z AUTO 28008KT 10SM CLR 17/14 A2995 RMK AO2 T01710136
KZPH 122315Z AUTO 28009KT 10SM CLR 18/14 A2993 RMK AO2 T01760136
KZPH 122255Z AUTO 29010G14KT 10SM CLR 19/14 A2993 RMK AO2 T01850136
KZPH 122235Z AUTO 28013G20KT 10SM CLR 20/12 A2993 RMK AO2 T02040117
KZPH 122215Z AUTO 27011G19KT 10SM SCT047 21/11 A2993 RMK AO2 T02080109
KZPH 122155Z AUTO 27018G24KT 10SM SCT050 21/11 A2992 RMK AO2 T02110106
KZPH 122135Z AUTO 27014G24KT 10SM SCT060 22/10 A2993 RMK AO2 T02180098
KZPH 122115Z AUTO 27016G24KT 10SM SCT060 21/10 A2993 RMK AO2 LTG DSNT NE T02140099
KZPH 122055Z AUTO 27018G27KT 10SM CLR 22/10 A2993 RMK AO2 T02220098
KZPH 122035Z AUTO 27017G25KT 10SM CLR 22/10 A2993 RMK AO2 T02210097
KZPH 122015Z AUTO 27019G27KT 10SM SCT050 22/09 A2994 RMK AO2 T02190092
KZPH 121955Z AUTO 27015G26KT 10SM SCT050 SCT060 23/10 A2993 RMK AO2 T02290104
KZPH 121935Z AUTO 28015G22KT 10SM CLR 23/11 A2994 RMK AO2 T02270107
KZPH 121915Z AUTO 26012G23KT 10SM SCT050 SCT055 SCT065 23/10 A2994 RMK AO2 T02250095
KZPH 121855Z AUTO 26018G22KT 10SM CLR 22/12 A2996 RMK AO2 T02200122
KZPH 121835Z AUTO 26014G19KT 10SM SCT046 SCT065 SCT075 22/12 A2996 RMK AO2 T02200121
KZPH 121815Z AUTO 27012G20KT 10SM SCT050 SCT060 22/11 A2997 RMK AO2 T02180112
KZPH 121755Z AUTO 27015G22KT 10SM SCT048 SCT060 22/11 A2998 RMK AO2 T02240108 10226 20034
KZPH 121735Z AUTO 27016G22KT 10SM SCT048 22/11 A3000 RMK AO2 T02180108
KZPH 121715Z AUTO 26016G20KT 10SM CLR 21/11 A3001 RMK AO2 T02060109
KZPH 121655Z AUTO 00000KT 10SM CLR 21/13 A3002 RMK AO2 T02110126
KZPH 121635Z AUTO 24008KT 210V270 10SM SCT047 21/13 A3003 RMK AO2 T02100126
KZPH 121615Z AUTO 24008KT 10SM SCT044 20/12 A3005 RMK AO2 T01980122
KZPH 121555Z AUTO 00000KT 10SM SCT044 19/12 A3005 RMK AO2 T01860120
KZPH 121535Z AUTO 00000KT 10SM CLR 18/12 A3006 RMK AO2 T01790121
KZPH 121515Z AUTO 00000KT 10SM CLR 16/12 A3006 RMK AO2 T01630116
KZPH 121455Z AUTO 00000KT 10SM SCT043 15/11 A3007 RMK AO2 T01470112
KZPH 121435Z AUTO 19005KT 10SM SCT043 13/11 A3007 RMK AO2 T01300107
KZPH 121415Z AUTO 00000KT 10SM CLR 11/10 A3007 RMK AO2 T01140101